createdAt,value
2019-05-13T00:00:00.421Z,98.9868
2019-05-13T00:00:11.092Z,99.0906
2019-05-13T00:00:20.810Z,99.0417
2019-05-13T00:00:30.515Z,99.0417
2019-05-13T00:00:41.221Z,99.0417
2019-05-13T00:00:53.893Z,98.9380
2019-05-13T00:01:06.815Z,98.9868
2019-05-13T00:01:14.312Z,98.9380
2019-05-13T00:01:23.768Z,98.9380
2019-05-13T00:01:31.389Z,98.9380
2019-05-13T00:01:43.275Z,98.8342
2019-05-13T00:01:51.060Z,98.8831
2019-05-13T00:02:00.750Z,98.7793
2019-05-13T00:02:10.442Z,98.7793
2019-05-13T00:02:21.112Z,98.6755
2019-05-13T00:02:30.799Z,98.6755
2019-05-13T00:02:43.849Z,98.6755
2019-05-13T00:02:54.253Z,98.5718
2019-05-13T00:03:03.570Z,98.5718
2019-05-13T00:03:13.559Z,98.5718
2019-05-13T00:03:23.923Z,98.5718
2019-05-13T00:03:33.381Z,98.5718
2019-05-13T00:03:41.134Z,98.4680
2019-05-13T00:03:50.813Z,98.4680
2019-05-13T00:04:03.596Z,98.4680
2019-05-13T00:04:11.233Z,98.4680
2019-05-13T00:04:33.725Z,98.5107
2019-05-13T00:04:43.657Z,98.6145
2019-05-13T00:04:53.238Z,98.7183
2019-05-13T00:05:00.852Z,98.8220
2019-05-13T00:05:10.526Z,98.9258
2019-05-13T00:05:23.340Z,98.9258
2019-05-13T00:05:44.578Z,98.9258
2019-05-13T00:05:53.705Z,98.9258
2019-05-13T00:06:01.346Z,99.0295
2019-05-13T00:06:13.269Z,99.0295
2019-05-13T00:06:30.655Z,99.1333
2019-05-13T00:06:53.130Z,99.1333
2019-05-13T00:06:54.441Z,99.2371
2019-05-13T00:07:00.869Z,99.1333
2019-05-13T00:07:13.467Z,99.1333
2019-05-13T00:07:21.067Z,99.1333
2019-05-13T00:07:30.787Z,99.0295
2019-05-13T00:07:40.478Z,99.0295
2019-05-13T00:07:53.941Z,99.0295
2019-05-13T00:08:03.477Z,99.0295
2019-05-13T00:08:13.748Z,99.0295
2019-05-13T00:08:21.942Z,99.1333
2019-05-13T00:08:33.827Z,99.3408
2019-05-13T00:08:43.860Z,99.5483
2019-05-13T00:08:51.583Z,99.7559
2019-05-13T00:09:03.412Z,99.8596
2019-05-13T00:09:11.098Z,99.8596
2019-05-13T00:09:20.758Z,99.7559
2019-05-13T00:09:33.983Z,99.7559
2019-05-13T00:09:44.092Z,99.7559
2019-05-13T00:09:54.230Z,99.8596
2019-05-13T00:10:04.065Z,99.9634
2019-05-13T00:10:14.358Z,99.9634
2019-05-13T00:10:31.001Z,99.9939
2019-05-13T00:10:40.661Z,99.9939
2019-05-13T00:10:53.976Z,99.9939
2019-05-13T00:11:13.612Z,99.9939
2019-05-13T00:11:21.309Z,99.9939
2019-05-13T00:11:31.025Z,99.9939
2019-05-13T00:11:40.714Z,99.9939
2019-05-13T00:11:50.385Z,99.9939
2019-05-13T00:12:04.526Z,99.9939
2019-05-13T00:12:13.787Z,99.9939
2019-05-13T00:12:23.865Z,99.9939
2019-05-13T00:12:31.545Z,99.9939
2019-05-13T00:12:41.260Z,99.9939
2019-05-13T00:12:53.787Z,99.9939
2019-05-13T00:13:03.666Z,99.9939
2019-05-13T00:13:11.824Z,99.9939
2019-05-13T00:13:23.580Z,99.9939
2019-05-13T00:13:31.274Z,99.9939
2019-05-13T00:13:40.960Z,99.9939
2019-05-13T00:13:50.703Z,99.9756
2019-05-13T00:14:00.368Z,99.8718
2019-05-13T00:14:13.414Z,99.7681
2019-05-13T00:14:21.061Z,99.6643
2019-05-13T00:14:30.740Z,99.5605
2019-05-13T00:14:40.440Z,99.5605
2019-05-13T00:14:53.966Z,99.5605
2019-05-13T00:15:03.783Z,99.4568
2019-05-13T00:15:13.763Z,99.5605
2019-05-13T00:15:21.494Z,99.5605
2019-05-13T00:15:33.739Z,99.5605
2019-05-13T00:15:44.088Z,99.5605
2019-05-13T00:16:03.631Z,99.4568
2019-05-13T00:16:11.413Z,99.4568
2019-05-13T00:16:30.810Z,99.4568
2019-05-13T00:16:40.523Z,99.4568
2019-05-13T00:16:53.801Z,99.5605
2019-05-13T00:17:04.186Z,99.5605
2019-05-13T00:17:14.491Z,99.6643
2019-05-13T00:17:23.691Z,99.7681
2019-05-13T00:17:33.648Z,99.7681
2019-05-13T00:17:41.365Z,99.7681
2019-05-13T00:17:51.011Z,99.7681
2019-05-13T00:18:00.711Z,99.7681
2019-05-13T00:18:10.388Z,99.7681
2019-05-13T00:18:23.334Z,99.6643
2019-05-13T00:18:31.151Z,99.6643
2019-05-13T00:18:40.901Z,99.6643
2019-05-13T00:18:50.575Z,99.6643
2019-05-13T00:19:04.103Z,99.6643
2019-05-13T00:19:14.090Z,99.6643
2019-05-13T00:19:23.334Z,99.6643
2019-05-13T00:19:30.955Z,99.6643
2019-05-13T00:19:40.666Z,99.7681
2019-05-13T00:19:50.605Z,99.7681
2019-05-13T00:20:04.009Z,99.7681
2019-05-13T00:20:13.864Z,99.7681
2019-05-13T00:20:20.793Z,99.7681
2019-05-13T00:20:54.221Z,99.7681
2019-05-13T00:21:03.610Z,99.7192
2019-05-13T00:21:13.891Z,99.7192
2019-05-13T00:21:23.227Z,99.7192
2019-05-13T00:21:30.831Z,99.8230
2019-05-13T00:21:40.781Z,99.8230
2019-05-13T00:21:50.456Z,99.7192
2019-05-13T00:22:03.832Z,99.7192
2019-05-13T00:22:10.421Z,99.7192
2019-05-13T00:22:23.423Z,99.7192
2019-05-13T00:22:31.062Z,99.7192
2019-05-13T00:22:44.355Z,99.7192
2019-05-13T00:22:53.834Z,99.6765
2019-05-13T00:23:03.707Z,99.6765
2019-05-13T00:23:14.083Z,99.6765
2019-05-13T00:23:23.366Z,99.5728
2019-05-13T00:23:33.976Z,99.4690
2019-05-13T00:23:44.062Z,99.4690
2019-05-13T00:23:53.431Z,99.3225
2019-05-13T00:24:01.105Z,99.2188
2019-05-13T00:24:10.933Z,99.0112
2019-05-13T00:24:20.615Z,99.0112
2019-05-13T00:24:30.363Z,98.9075
2019-05-13T00:24:44.320Z,98.8037
2019-05-13T00:24:54.146Z,98.7000
2019-05-13T00:25:03.990Z,98.5474
2019-05-13T00:25:14.267Z,98.4436
2019-05-13T00:25:24.109Z,98.3398
2019-05-13T00:25:44.199Z,98.2361
2019-05-13T00:25:50.563Z,98.1323
2019-05-13T00:26:03.876Z,98.0347
2019-05-13T00:26:13.950Z,97.9309
2019-05-13T00:26:21.685Z,97.6746
2019-05-13T00:26:33.694Z,97.4670
2019-05-13T00:26:41.351Z,97.2595
2019-05-13T00:26:53.132Z,96.9543
2019-05-13T00:27:00.748Z,96.8506
2019-05-13T00:27:10.415Z,96.7468
2019-05-13T00:27:23.472Z,96.6431
2019-05-13T00:27:31.073Z,96.4905
2019-05-13T00:27:40.787Z,96.4905
2019-05-13T00:27:50.493Z,96.2891
2019-05-13T00:28:04.042Z,96.0815
2019-05-13T00:28:14.199Z,95.8740
2019-05-13T00:28:23.462Z,95.6665
2019-05-13T00:28:34.203Z,95.5627
2019-05-13T00:28:44.205Z,95.4590
2019-05-13T00:28:53.445Z,95.3552
2019-05-13T00:29:01.077Z,95.2515
2019-05-13T00:29:10.766Z,95.2515
2019-05-13T00:29:20.482Z,95.2515
2019-05-13T00:29:34.115Z,95.1477
2019-05-13T00:29:41.785Z,95.0439
2019-05-13T00:29:53.405Z,94.7327
2019-05-13T00:30:01.116Z,94.6289
2019-05-13T00:30:10.833Z,94.5862
2019-05-13T00:30:20.513Z,94.5862
2019-05-13T00:30:34.201Z,94.4824
2019-05-13T00:30:44.262Z,94.3787
2019-05-13T00:30:50.747Z,94.2810
2019-05-13T00:31:03.409Z,94.1772
2019-05-13T00:31:11.094Z,94.0735
2019-05-13T00:31:24.378Z,93.8660
2019-05-13T00:31:33.463Z,93.8660
2019-05-13T00:31:41.131Z,93.7622
2019-05-13T00:31:50.810Z,93.5547
2019-05-13T00:32:00.462Z,93.4509
2019-05-13T00:32:13.465Z,93.3472
2019-05-13T00:32:21.140Z,93.3472
2019-05-13T00:32:33.692Z,93.3472
2019-05-13T00:32:41.281Z,93.4509
2019-05-13T00:32:51.250Z,93.4509
2019-05-13T00:33:00.915Z,93.4509
2019-05-13T00:33:10.606Z,93.4509
2019-05-13T00:33:24.387Z,93.3472
2019-05-13T00:33:33.874Z,93.2434
2019-05-13T00:33:44.274Z,93.1396
2019-05-13T00:33:53.252Z,93.1396
2019-05-13T00:34:00.862Z,92.9321
2019-05-13T00:34:10.540Z,92.9321
2019-05-13T00:34:24.389Z,92.9321
2019-05-13T00:34:33.801Z,93.0359
2019-05-13T00:34:41.536Z,92.9321
2019-05-13T00:34:53.302Z,92.9321
2019-05-13T00:35:03.870Z,93.0359
2019-05-13T00:35:13.932Z,93.1396
2019-05-13T00:35:23.355Z,93.2434
2019-05-13T00:35:33.584Z,93.3472
2019-05-13T00:35:41.526Z,93.2434
2019-05-13T00:35:53.283Z,93.2434
2019-05-13T00:36:01.016Z,93.1396
2019-05-13T00:36:10.690Z,93.0359
2019-05-13T00:36:24.279Z,92.9321
2019-05-13T00:36:33.707Z,92.8894
2019-05-13T00:36:41.465Z,92.8894
2019-05-13T00:37:04.407Z,92.8894
2019-05-13T00:37:08.719Z,92.9932
2019-05-13T00:37:14.015Z,93.0969
2019-05-13T00:37:20.512Z,93.2007
2019-05-13T00:37:35.759Z,92.9932
2019-05-13T00:37:40.896Z,92.7856
2019-05-13T00:37:54.117Z,92.5842
2019-05-13T00:38:03.975Z,92.4805
2019-05-13T00:38:13.885Z,92.4805
2019-05-13T00:38:21.717Z,92.4805
2019-05-13T00:38:33.477Z,92.4805
2019-05-13T00:38:41.188Z,92.4805
2019-05-13T00:38:53.295Z,92.5842
2019-05-13T00:39:01.028Z,92.5842
2019-05-13T00:39:10.805Z,92.7856
2019-05-13T00:39:20.463Z,92.8894
2019-05-13T00:39:33.710Z,92.9932
2019-05-13T00:39:43.637Z,92.9932
2019-05-13T00:39:51.713Z,92.8894
2019-05-13T00:40:03.955Z,92.8894
2019-05-13T00:40:14.359Z,92.9932
2019-05-13T00:40:24.016Z,92.9932
2019-05-13T00:40:33.898Z,92.8894
2019-05-13T00:40:54.509Z,92.6819
2019-05-13T00:41:03.701Z,92.5842
2019-05-13T00:41:11.377Z,92.5842
2019-05-13T00:41:21.110Z,92.5842
2019-05-13T00:41:30.785Z,92.5842
2019-05-13T00:41:40.467Z,92.5842
2019-05-13T00:41:53.173Z,92.5842
2019-05-13T00:42:00.742Z,92.5842
2019-05-13T00:42:11.607Z,92.6819
2019-05-13T00:42:21.311Z,92.7856
2019-05-13T00:42:33.337Z,92.7856
2019-05-13T00:42:54.408Z,93.0969
2019-05-13T00:43:03.807Z,93.0969
2019-05-13T00:43:14.305Z,93.0969
2019-05-13T00:43:21.097Z,92.8894
2019-05-13T00:43:30.828Z,92.7856
2019-05-13T00:43:40.526Z,92.6819
2019-05-13T00:43:53.237Z,92.5842
2019-05-13T00:44:00.847Z,92.5842
2019-05-13T00:44:11.126Z,92.5842
2019-05-13T00:44:20.966Z,92.6819
2019-05-13T00:44:30.935Z,92.7856
2019-05-13T00:44:40.656Z,92.9932
2019-05-13T00:44:50.362Z,92.9932
2019-05-13T00:45:04.045Z,93.0969
2019-05-13T00:45:14.269Z,93.0969
2019-05-13T00:45:24.386Z,92.8894
2019-05-13T00:45:34.014Z,92.7856
2019-05-13T00:45:44.195Z,92.6819
2019-05-13T00:45:53.305Z,92.6819
2019-05-13T00:46:03.859Z,92.6819
2019-05-13T00:46:14.069Z,92.6819
2019-05-13T00:46:23.472Z,92.5842
2019-05-13T00:46:33.974Z,92.2729
2019-05-13T00:46:44.066Z,92.0654
2019-05-13T00:46:53.571Z,91.9617
2019-05-13T00:47:01.306Z,91.8579
2019-05-13T00:47:13.139Z,91.8579
2019-05-13T00:47:20.828Z,92.0654
2019-05-13T00:47:30.498Z,92.2729
2019-05-13T00:47:50.998Z,92.3767
2019-05-13T00:48:00.734Z,92.4805
2019-05-13T00:48:10.430Z,92.5842
2019-05-13T00:48:43.972Z,92.1692
2019-05-13T00:48:54.024Z,92.0654
2019-05-13T00:49:04.563Z,92.0654
2019-05-13T00:49:13.416Z,91.9617
2019-05-13T00:49:21.086Z,91.9617
2019-05-13T00:49:34.592Z,91.9617
2019-05-13T00:49:43.706Z,92.0654
2019-05-13T00:49:51.308Z,92.1692
2019-05-13T00:50:03.528Z,92.1692
2019-05-13T00:50:13.923Z,92.2729
2019-05-13T00:50:24.008Z,92.2729
2019-05-13T00:50:33.547Z,92.3767
2019-05-13T00:50:41.185Z,92.3767
2019-05-13T00:50:54.266Z,92.4805
2019-05-13T00:51:03.810Z,92.4805
2019-05-13T00:51:13.948Z,92.5842
2019-05-13T00:51:21.685Z,92.6819
2019-05-13T00:51:33.553Z,92.9321
2019-05-13T00:51:41.331Z,93.0359
2019-05-13T00:51:53.432Z,93.0359
2019-05-13T00:52:01.084Z,93.0359
2019-05-13T00:52:10.767Z,92.9321
2019-05-13T00:52:20.405Z,92.9321
2019-05-13T00:52:33.942Z,92.9321
2019-05-13T00:52:41.557Z,92.9321
2019-05-13T00:52:53.609Z,92.9321
2019-05-13T00:53:01.267Z,92.9321
2019-05-13T00:53:13.338Z,92.9321
2019-05-13T00:53:23.886Z,93.0359
2019-05-13T00:53:31.432Z,93.0359
2019-05-13T00:53:44.062Z,93.1396
2019-05-13T00:53:53.642Z,93.2434
2019-05-13T00:54:01.337Z,93.3472
2019-05-13T00:54:13.151Z,93.4509
2019-05-13T00:54:20.875Z,93.4937
2019-05-13T00:54:30.556Z,93.4937
2019-05-13T00:54:44.151Z,93.4937
2019-05-13T00:54:53.479Z,93.4937
2019-05-13T00:55:01.104Z,93.4937
2019-05-13T00:55:10.789Z,93.4937
2019-05-13T00:55:23.744Z,93.5974
2019-05-13T00:55:34.422Z,93.5974
2019-05-13T00:55:44.372Z,93.5974
2019-05-13T00:55:53.621Z,93.7012
2019-05-13T00:56:04.011Z,93.8049
2019-05-13T00:56:13.361Z,93.8049
2019-05-13T00:56:20.957Z,93.9087
2019-05-13T00:56:33.977Z,94.0125
2019-05-13T00:56:43.643Z,93.9087
2019-05-13T00:56:51.279Z,93.9087
2019-05-13T00:57:00.987Z,94.0125
2019-05-13T00:57:10.696Z,94.0125
2019-05-13T00:57:20.713Z,94.0125
2019-05-13T00:57:34.167Z,94.0125
2019-05-13T00:57:43.647Z,94.0125
2019-05-13T00:57:53.942Z,94.0125
2019-05-13T00:58:00.682Z,94.0125
2019-05-13T00:58:10.947Z,94.0552
2019-05-13T00:58:20.657Z,94.0552
2019-05-13T00:58:33.479Z,94.0552
2019-05-13T00:58:43.524Z,94.1589
2019-05-13T00:58:51.299Z,94.1589
2019-05-13T00:59:03.538Z,94.1589
2019-05-13T00:59:13.999Z,94.1589
2019-05-13T00:59:24.096Z,94.2627
2019-05-13T00:59:33.884Z,94.2627
2019-05-13T00:59:44.133Z,94.4702
2019-05-13T00:59:54.011Z,94.4702
2019-05-13T01:00:03.550Z,94.6777
2019-05-13T01:00:11.176Z,94.8853
2019-05-13T01:00:20.881Z,94.9829
2019-05-13T01:00:30.590Z,95.0867
2019-05-13T01:00:40.519Z,95.1904
2019-05-13T01:00:54.439Z,95.2942
2019-05-13T01:01:10.900Z,95.1904
2019-05-13T01:01:20.621Z,95.0867
2019-05-13T01:01:33.534Z,95.0867
2019-05-13T01:01:41.218Z,94.9829
2019-05-13T01:02:00.546Z,94.8853
2019-05-13T01:02:13.926Z,94.8853
2019-05-13T01:02:21.598Z,94.9280
2019-05-13T01:02:33.325Z,94.9280
2019-05-13T01:02:41.288Z,94.8242
2019-05-13T01:03:00.728Z,95.0317
2019-05-13T01:03:10.406Z,95.1355
2019-05-13T01:03:24.532Z,95.2820
2019-05-13T01:03:33.817Z,95.3857
2019-05-13T01:03:41.541Z,95.4895
2019-05-13T01:03:53.173Z,95.6970
2019-05-13T01:04:00.833Z,95.9045
2019-05-13T01:04:10.507Z,96.0083
2019-05-13T01:04:23.201Z,96.1121
2019-05-13T01:04:31.157Z,96.1121
2019-05-13T01:04:40.831Z,96.1121
2019-05-13T01:04:50.519Z,96.2097
2019-05-13T01:05:04.314Z,96.2097
2019-05-13T01:05:14.377Z,96.3135
2019-05-13T01:05:23.442Z,96.3135
2019-05-13T01:05:31.031Z,96.4172
2019-05-13T01:05:41.711Z,96.4172
2019-05-13T01:05:53.432Z,96.4172
2019-05-13T01:06:01.056Z,96.4172
2019-05-13T01:06:10.718Z,96.4172
2019-05-13T01:06:20.460Z,96.4661
2019-05-13T01:06:34.152Z,96.6736
2019-05-13T01:06:43.557Z,96.7773
2019-05-13T01:06:53.591Z,96.7773
2019-05-13T01:07:00.356Z,96.7773
2019-05-13T01:07:25.246Z,96.7773
2019-05-13T01:07:27.887Z,96.9849
2019-05-13T01:07:30.583Z,96.9849
2019-05-13T01:07:44.396Z,97.1924
2019-05-13T01:07:53.710Z,97.1924
2019-05-13T01:08:03.899Z,97.2900
2019-05-13T01:08:14.281Z,97.3938
2019-05-13T01:08:23.641Z,97.3938
2019-05-13T01:08:33.698Z,97.4976
2019-05-13T01:08:41.405Z,97.7051
2019-05-13T01:08:53.460Z,97.9126
2019-05-13T01:09:01.171Z,97.9126
2019-05-13T01:09:10.874Z,97.9126
2019-05-13T01:09:23.583Z,97.8088
2019-05-13T01:09:31.306Z,97.7051
2019-05-13T01:09:41.006Z,97.7051
2019-05-13T01:09:50.696Z,97.7051
2019-05-13T01:10:01.386Z,97.8088
2019-05-13T01:10:12.935Z,97.9126
2019-05-13T01:10:20.972Z,98.0164
2019-05-13T01:10:30.683Z,98.0164
2019-05-13T01:10:44.895Z,98.1201
2019-05-13T01:10:50.617Z,98.1201
2019-05-13T01:11:01.344Z,98.1201
2019-05-13T01:11:13.334Z,98.1201
2019-05-13T01:11:20.929Z,98.1201
2019-05-13T01:11:34.175Z,98.1201
2019-05-13T01:11:43.747Z,98.1689
2019-05-13T01:11:53.556Z,98.1689
2019-05-13T01:12:01.394Z,98.1689
2019-05-13T01:12:13.276Z,98.1689
2019-05-13T01:12:20.981Z,98.1689
2019-05-13T01:12:30.624Z,98.1689
2019-05-13T01:12:40.354Z,98.1689
2019-05-13T01:12:53.971Z,98.2727
2019-05-13T01:13:43.353Z,98.3765
2019-05-13T01:13:43.353Z,98.2727
2019-05-13T01:14:36.430Z,98.6877
2019-05-13T01:14:36.430Z,98.2727
2019-05-13T01:15:29.756Z,98.7915
2019-05-13T01:15:29.756Z,98.6877
2019-05-13T01:15:34.329Z,98.7915
2019-05-13T01:15:37.960Z,98.8953
2019-05-13T01:15:40.312Z,98.9990
2019-05-13T01:15:44.287Z,98.9990
2019-05-13T01:16:03.691Z,99.1028
2019-05-13T01:16:13.885Z,99.2065
2019-05-13T01:16:23.439Z,99.3103
2019-05-13T01:16:31.111Z,99.2615
2019-05-13T01:16:44.113Z,99.2615
2019-05-13T01:16:54.228Z,99.2615
2019-05-13T01:17:03.915Z,99.2615
2019-05-13T01:17:14.072Z,99.2615
2019-05-13T01:17:23.588Z,99.2615
2019-05-13T01:17:31.178Z,99.2615
2019-05-13T01:17:44.485Z,99.1577
2019-05-13T01:17:50.704Z,99.0540
2019-05-13T01:18:00.389Z,99.0540
2019-05-13T01:18:11.062Z,99.0540
2019-05-13T01:18:23.444Z,98.9502
2019-05-13T01:18:31.023Z,98.9502
2019-05-13T01:18:40.691Z,98.9990
2019-05-13T01:18:53.313Z,98.9990
2019-05-13T01:19:01.244Z,98.8953
2019-05-13T01:19:10.902Z,98.8953
2019-05-13T01:19:20.559Z,98.8953
2019-05-13T01:19:31.252Z,98.7915
2019-05-13T01:19:43.228Z,98.6877
2019-05-13T01:19:50.859Z,98.4802
2019-05-13T01:20:00.563Z,98.3765
2019-05-13T01:20:11.462Z,98.4192
2019-05-13T01:20:23.436Z,98.5229
2019-05-13T01:20:34.370Z,98.5229
2019-05-13T01:20:43.706Z,98.5229
2019-05-13T01:20:50.440Z,98.6267
2019-05-13T01:21:01.133Z,98.8342
2019-05-13T01:21:13.143Z,98.9380
2019-05-13T01:21:20.869Z,99.0417
2019-05-13T01:21:30.593Z,99.1455
2019-05-13T01:21:43.438Z,99.2493
2019-05-13T01:21:51.132Z,99.2493
2019-05-13T01:22:03.232Z,99.3530
2019-05-13T01:22:13.333Z,99.5605
2019-05-13T01:22:21.033Z,99.6643
2019-05-13T01:22:33.903Z,99.7681
2019-05-13T01:22:44.114Z,99.6643
2019-05-13T01:23:10.394Z,99.6643
2019-05-13T01:23:24.087Z,99.6643
2019-05-13T01:23:30.751Z,99.6643
2019-05-13T01:23:40.436Z,99.6643
2019-05-13T01:24:14.501Z,99.5605
2019-05-13T01:24:24.283Z,99.6643
2019-05-13T01:24:33.713Z,99.7681
2019-05-13T01:24:43.815Z,99.8718
2019-05-13T01:24:50.756Z,99.8718
2019-05-13T01:25:00.418Z,99.8718
2019-05-13T01:25:14.457Z,99.9756
2019-05-13T01:25:21.064Z,99.9756
2019-05-13T01:25:33.632Z,99.9756
2019-05-13T01:25:44.225Z,99.9939
2019-05-13T01:25:50.570Z,99.9939
2019-05-13T01:26:03.716Z,99.9939
2019-05-13T01:26:10.492Z,99.9939
2019-05-13T01:26:23.306Z,99.9939
2019-05-13T01:26:30.869Z,99.9939
2019-05-13T01:26:40.540Z,99.9939
2019-05-13T01:26:51.221Z,99.9939
2019-05-13T01:27:03.555Z,99.9939
2019-05-13T01:27:13.970Z,99.9939
2019-05-13T01:27:23.817Z,99.9939
2019-05-13T01:27:33.407Z,99.9939
2019-05-13T01:27:41.068Z,99.9939
2019-05-13T01:27:50.734Z,99.9939
2019-05-13T01:28:00.709Z,99.9939
2019-05-13T01:28:10.373Z,99.9939
2019-05-13T01:28:23.903Z,99.9939
2019-05-13T01:28:31.619Z,99.9939
2019-05-13T01:28:43.478Z,99.9939
2019-05-13T01:28:53.453Z,99.9939
2019-05-13T01:29:01.132Z,99.9939
2019-05-13T01:29:13.436Z,99.9939
2019-05-13T01:29:21.183Z,99.9939
2019-05-13T01:29:34.160Z,99.9939
2019-05-13T01:29:43.539Z,99.9939
2019-05-13T01:29:53.378Z,99.9939
2019-05-13T01:30:01.097Z,99.9939
2019-05-13T01:30:13.216Z,99.9939
2019-05-13T01:30:20.916Z,99.9939
2019-05-13T01:30:30.595Z,99.9939
2019-05-13T01:30:43.637Z,99.9939
2019-05-13T01:30:53.982Z,99.9939
2019-05-13T01:31:03.967Z,99.9939
2019-05-13T01:31:13.271Z,99.9939
2019-05-13T01:31:20.905Z,99.9268
2019-05-13T01:31:34.207Z,99.7192
2019-05-13T01:31:43.245Z,99.7192
2019-05-13T01:31:53.832Z,99.7681
2019-05-13T01:32:01.497Z,99.7681
2019-05-13T01:32:11.152Z,99.7681
2019-05-13T01:32:23.880Z,99.7681
2019-05-13T01:32:34.194Z,99.8718
2019-05-13T01:32:44.611Z,99.9939
2019-05-13T01:32:54.044Z,99.9939
2019-05-13T01:33:04.049Z,99.9939
2019-05-13T01:33:14.212Z,99.9939
2019-05-13T01:33:23.593Z,99.9939
2019-05-13T01:33:31.266Z,99.9939
2019-05-13T01:33:40.966Z,99.9939
2019-05-13T01:33:50.657Z,99.9939
2019-05-13T01:34:00.366Z,99.9939
2019-05-13T01:34:14.264Z,99.9939
2019-05-13T01:34:23.536Z,99.9939
2019-05-13T01:34:31.267Z,99.9939
2019-05-13T01:34:44.212Z,99.9939
2019-05-13T01:34:53.870Z,99.9939
2019-05-13T01:35:01.507Z,99.9939
2019-05-13T01:35:11.183Z,99.9939
2019-05-13T01:35:20.854Z,99.9939
2019-05-13T01:35:30.593Z,99.9939
2019-05-13T01:35:44.574Z,99.9939
2019-05-13T01:35:53.814Z,99.9939
2019-05-13T01:36:00.367Z,99.9939
2019-05-13T01:36:13.387Z,99.9939
2019-05-13T01:36:23.349Z,99.9939
2019-05-13T01:36:31.123Z,99.9939
2019-05-13T01:36:40.824Z,99.9939
2019-05-13T01:36:50.552Z,99.9939
2019-05-13T01:37:04.269Z,99.9756
2019-05-13T01:37:13.285Z,99.9756
2019-05-13T01:37:20.874Z,99.9756
2019-05-13T01:37:42.368Z,99.9756
2019-05-13T01:37:43.400Z,99.8718
2019-05-13T01:37:53.682Z,99.8718
2019-05-13T01:38:00.395Z,99.8718
2019-05-13T01:38:13.357Z,99.9756
2019-05-13T01:38:21.062Z,99.9939
2019-05-13T01:38:30.775Z,99.9939
2019-05-13T01:38:40.496Z,99.9939
2019-05-13T01:38:54.075Z,99.9939
2019-05-13T01:39:01.718Z,99.9939
2019-05-13T01:39:10.437Z,99.9939
2019-05-13T01:39:24.273Z,99.9939
2019-05-13T01:39:34.665Z,99.9939
2019-05-13T01:39:40.395Z,99.9939
2019-05-13T01:39:54.060Z,99.9939
2019-05-13T01:40:00.724Z,99.9939
2019-05-13T01:40:10.416Z,99.9939
2019-05-13T01:40:23.958Z,99.9939
2019-05-13T01:40:31.557Z,99.9939
2019-05-13T01:40:43.748Z,99.9939
2019-05-13T01:40:53.748Z,99.9939
2019-05-13T01:41:01.552Z,99.9939
2019-05-13T01:41:13.492Z,99.9939
2019-05-13T01:41:21.212Z,99.9939
2019-05-13T01:41:32.855Z,99.9939
2019-05-13T01:41:43.654Z,99.9939
2019-05-13T01:41:51.377Z,99.9939
2019-05-13T01:42:03.481Z,99.9939
2019-05-13T01:42:13.663Z,99.9939
2019-05-13T01:42:21.324Z,99.9939
2019-05-13T01:42:33.538Z,99.9939
2019-05-13T01:42:41.207Z,99.9939
2019-05-13T01:42:50.894Z,99.9939
2019-05-13T01:43:00.566Z,99.9939
2019-05-13T01:43:14.458Z,99.9939
2019-05-13T01:43:24.394Z,99.9939
2019-05-13T01:43:33.547Z,99.9939
2019-05-13T01:43:41.158Z,99.9939
2019-05-13T01:43:50.835Z,99.9939
2019-05-13T01:44:03.866Z,99.9939
2019-05-13T01:44:13.820Z,99.9939
2019-05-13T01:44:21.557Z,99.9939
2019-05-13T01:44:33.565Z,99.9939
2019-05-13T01:44:43.647Z,99.9939
2019-05-13T01:44:53.390Z,99.9939
2019-05-13T01:45:01.358Z,99.9939
2019-05-13T01:45:13.495Z,99.9939
2019-05-13T01:45:24.027Z,99.9939
2019-05-13T01:45:33.755Z,99.9939
2019-05-13T01:45:40.451Z,99.9939
2019-05-13T01:45:53.741Z,99.9939
2019-05-13T01:46:13.347Z,99.9939
2019-05-13T01:46:30.674Z,99.9939
2019-05-13T01:46:43.717Z,99.9939
2019-05-13T01:46:53.640Z,99.9939
2019-05-13T01:47:01.338Z,99.9939
2019-05-13T01:47:13.321Z,99.9939
2019-05-13T01:47:20.962Z,99.9939
2019-05-13T01:47:30.618Z,99.9939
2019-05-13T01:47:44.080Z,99.9939
2019-05-13T01:47:53.807Z,99.9939
2019-05-13T01:48:06.261Z,99.9939
2019-05-13T01:48:14.179Z,99.9939
2019-05-13T01:48:33.163Z,99.9939
2019-05-13T01:48:40.839Z,99.9939
2019-05-13T01:48:50.504Z,99.9939
2019-05-13T01:49:04.807Z,99.9939
2019-05-13T01:49:13.690Z,99.9939
2019-05-13T01:49:21.327Z,99.9939
2019-05-13T01:49:33.449Z,99.9939
2019-05-13T01:49:40.360Z,99.9939
2019-05-13T01:49:54.150Z,99.9939
2019-05-13T01:50:00.806Z,99.9939
2019-05-13T01:50:10.504Z,99.9939
2019-05-13T01:50:24.148Z,99.9939
2019-05-13T01:50:33.810Z,99.9939
2019-05-13T01:50:43.784Z,99.9939
2019-05-13T01:50:53.365Z,99.9939
2019-05-13T01:51:03.566Z,99.9939
2019-05-13T01:51:20.584Z,99.9939
2019-05-13T01:51:33.485Z,99.9939
2019-05-13T01:51:41.062Z,99.9939
2019-05-13T01:51:53.978Z,99.9939
2019-05-13T01:52:03.867Z,99.9939
2019-05-13T01:52:13.533Z,99.9939
2019-05-13T01:52:21.190Z,99.9939
2019-05-13T01:52:30.890Z,99.9939
2019-05-13T01:52:40.576Z,99.9939
2019-05-13T01:52:53.320Z,99.9939
2019-05-13T01:53:04.388Z,99.9939
2019-05-13T01:53:14.279Z,99.9939
2019-05-13T01:53:24.181Z,99.9939
2019-05-13T01:53:33.630Z,99.9939
2019-05-13T01:53:44.049Z,99.9939
2019-05-13T01:53:53.425Z,99.9939
2019-05-13T01:54:01.130Z,99.9939
2019-05-13T01:54:10.791Z,99.9939
2019-05-13T01:54:20.476Z,99.9939
2019-05-13T01:54:33.874Z,99.9939
2019-05-13T01:54:40.678Z,99.9939
2019-05-13T01:54:50.353Z,99.9939
2019-05-13T01:55:04.037Z,99.9939
2019-05-13T01:55:14.300Z,99.9939
2019-05-13T01:55:24.329Z,99.9939
2019-05-13T01:55:34.008Z,99.9939
2019-05-13T01:55:44.041Z,99.9939
2019-05-13T01:55:53.298Z,99.9939
2019-05-13T01:56:00.944Z,99.9939
2019-05-13T01:56:10.634Z,99.9939
2019-05-13T01:56:23.551Z,99.9939
2019-05-13T01:56:33.821Z,99.9939
2019-05-13T01:56:43.953Z,99.9939
2019-05-13T01:56:53.510Z,99.9939
2019-05-13T01:57:01.186Z,99.9939
2019-05-13T01:57:10.915Z,99.9939
2019-05-13T01:57:20.604Z,99.9939
2019-05-13T01:57:44.259Z,99.9939
2019-05-13T01:57:53.210Z,99.9939
2019-05-13T01:58:00.941Z,99.9939
2019-05-13T01:58:10.642Z,99.9939
2019-05-13T01:58:23.617Z,99.9939
2019-05-13T01:58:33.797Z,99.9939
2019-05-13T01:58:41.543Z,99.9939
2019-05-13T01:58:51.244Z,99.9939
2019-05-13T01:59:03.443Z,99.9939
2019-05-13T01:59:11.194Z,99.9939
2019-05-13T01:59:20.872Z,99.9939
2019-05-13T01:59:30.560Z,99.9939
2019-05-13T01:59:43.517Z,99.9939
2019-05-13T01:59:53.645Z,99.9939
2019-05-13T02:00:01.404Z,99.9939
2019-05-13T02:00:14.015Z,99.9939
2019-05-13T02:00:24.065Z,99.9939
2019-05-13T02:00:31.783Z,99.9939
2019-05-13T02:00:43.993Z,99.9939
2019-05-13T02:00:54.977Z,99.9939
2019-05-13T02:01:00.938Z,99.9939
2019-05-13T02:01:10.611Z,99.9939
2019-05-13T02:01:21.465Z,99.9939
2019-05-13T02:01:33.465Z,99.9939
2019-05-13T02:01:44.197Z,99.9939
2019-05-13T02:01:53.908Z,99.9939
2019-05-13T02:02:03.525Z,99.9939
2019-05-13T02:02:11.147Z,99.9939
2019-05-13T02:02:20.896Z,99.9939
2019-05-13T02:02:30.577Z,99.9939
2019-05-13T02:02:44.621Z,99.9939
2019-05-13T02:02:54.339Z,99.9939
2019-05-13T02:03:03.824Z,99.9939
2019-05-13T02:03:13.745Z,99.9939
2019-05-13T02:03:24.417Z,99.9939
2019-05-13T02:03:33.805Z,99.9939
2019-05-13T02:03:44.095Z,99.9939
2019-05-13T02:03:51.797Z,99.9939
2019-05-13T02:04:04.006Z,99.9939
2019-05-13T02:04:14.040Z,99.9939
2019-05-13T02:04:24.275Z,99.9939
2019-05-13T02:04:40.705Z,99.9939
2019-05-13T02:04:50.388Z,99.9939
2019-05-13T02:05:03.988Z,99.9939
2019-05-13T02:05:13.805Z,99.9939
2019-05-13T02:05:24.263Z,99.9939
2019-05-13T02:05:34.030Z,99.9268
2019-05-13T02:05:43.933Z,99.8230
2019-05-13T02:05:54.239Z,99.8718
2019-05-13T02:06:03.832Z,99.7681
2019-05-13T02:06:13.955Z,99.7681
2019-05-13T02:06:20.519Z,99.7681
2019-05-13T02:06:33.609Z,99.7681
2019-05-13T02:06:41.348Z,99.6643
2019-05-13T02:06:51.039Z,99.6643